sensor_id;sensor_type;location;lat;lon;timestamp;pressure;altitude;pressure_sealevel;temperature;humidity
46534;BME280;32260;52.008;4.752;2023-10-08T00:01:25;102362.94;;;20.58;67.21
46534;BME280;32260;52.008;4.752;2023-10-08T00:03:51;102374.63;;;20.57;66.72
46534;BME280;32260;52.008;4.752;2023-10-08T00:06:20;102372.53;;;20.42;67.68
46534;BME280;32260;52.008;4.752;2023-10-08T00:08:47;102381.31;;;20.47;67.21
46534;BME280;32260;52.008;4.752;2023-10-08T00:11:14;102382.22;;;20.46;67.00
46534;BME280;32260;52.008;4.752;2023-10-08T00:13:42;102373.59;;;20.38;67.44
46534;BME280;32260;52.008;4.752;2023-10-08T00:16:10;102378.97;;;20.38;67.34
46534;BME280;32260;52.008;4.752;2023-10-08T00:18:38;102385.44;;;20.32;67.49
46534;BME280;32260;52.008;4.752;2023-10-08T00:21:07;102380.13;;;20.30;67.67
46534;BME280;32260;52.008;4.752;2023-10-08T00:23:48;102371.16;;;20.30;67.43
46534;BME280;32260;52.008;4.752;2023-10-08T00:26:19;102374.84;;;20.27;67.55
46534;BME280;32260;52.008;4.752;2023-10-08T00:28:54;102365.75;;;20.31;67.42
46534;BME280;32260;52.008;4.752;2023-10-08T00:31:20;102355.91;;;20.30;67.38
46534;BME280;32260;52.008;4.752;2023-10-08T00:33:49;102360.28;;;20.33;66.97
46534;BME280;32260;52.008;4.752;2023-10-08T00:36:15;102363.06;;;20.30;67.16
46534;BME280;32260;52.008;4.752;2023-10-08T00:38:46;102355.91;;;20.30;67.29
46534;BME280;32260;52.008;4.752;2023-10-08T00:41:17;102347.06;;;20.27;67.47
46534;BME280;32260;52.008;4.752;2023-10-08T00:43:49;102348.59;;;20.34;67.12
46534;BME280;32260;52.008;4.752;2023-10-08T00:46:17;102344.78;;;20.40;66.87
46534;BME280;32260;52.008;4.752;2023-10-08T00:48:52;102338.34;;;20.44;66.63
46534;BME280;32260;52.008;4.752;2023-10-08T00:51:22;102335.66;;;20.44;66.48
46534;BME280;32260;52.008;4.752;2023-10-08T00:54:02;102327.59;;;20.44;66.47
46534;BME280;32260;52.008;4.752;2023-10-08T00:56:34;102325.81;;;20.43;66.46
46534;BME280;32260;52.008;4.752;2023-10-08T00:59:20;102339.28;;;20.43;66.37
46534;BME280;32260;52.008;4.752;2023-10-08T01:01:49;102346.53;;;20.41;66.39
46534;BME280;32260;52.008;4.752;2023-10-08T01:04:22;102348.28;;;20.42;66.29
46534;BME280;32260;52.008;4.752;2023-10-08T01:06:54;102358.78;;;20.49;65.97
46534;BME280;32260;52.008;4.752;2023-10-08T01:09:25;102361.13;;;20.35;66.38
46534;BME280;32260;52.008;4.752;2023-10-08T01:12:15;102364.69;;;20.35;66.24
46534;BME280;32260;52.008;4.752;2023-10-08T01:14:46;102354.25;;;20.26;66.36
46534;BME280;32260;52.008;4.752;2023-10-08T01:17:14;102360.59;;;20.24;66.76
46534;BME280;32260;52.008;4.752;2023-10-08T01:19:43;102362.56;;;20.20;66.63
46534;BME280;32260;52.008;4.752;2023-10-08T01:22:12;102362.59;;;20.18;66.79
46534;BME280;32260;52.008;4.752;2023-10-08T01:24:44;102363.59;;;20.16;66.72
46534;BME280;32260;52.008;4.752;2023-10-08T01:27:14;102357.44;;;20.12;66.67
46534;BME280;32260;52.008;4.752;2023-10-08T01:29:46;102362.88;;;20.11;66.84
46534;BME280;32260;52.008;4.752;2023-10-08T01:32:12;102361.19;;;20.08;67.06
46534;BME280;32260;52.008;4.752;2023-10-08T01:34:42;102352.19;;;20.09;66.97
46534;BME280;32260;52.008;4.752;2023-10-08T01:37:13;102358.44;;;20.10;66.93
46534;BME280;32260;52.008;4.752;2023-10-08T01:39:40;102369.31;;;20.07;67.12
46534;BME280;32260;52.008;4.752;2023-10-08T01:42:08;102370.25;;;20.06;67.40
46534;BME280;32260;52.008;4.752;2023-10-08T01:44:44;102363.94;;;20.07;67.23
46534;BME280;32260;52.008;4.752;2023-10-08T01:47:13;102369.25;;;20.08;66.98
46534;BME280;32260;52.008;4.752;2023-10-08T01:49:39;102368.41;;;20.06;67.34
46534;BME280;32260;52.008;4.752;2023-10-08T01:52:06;102379.16;;;20.08;67.17
46534;BME280;32260;52.008;4.752;2023-10-08T01:54:39;102380.06;;;20.07;67.32
46534;BME280;32260;52.008;4.752;2023-10-08T01:57:06;102397.97;;;20.08;67.18
46534;BME280;32260;52.008;4.752;2023-10-08T01:59:35;102392.59;;;20.08;67.10
46534;BME280;32260;52.008;4.752;2023-10-08T02:02:04;102406.97;;;20.07;67.34
46534;BME280;32260;52.008;4.752;2023-10-08T02:04:32;102407.84;;;20.07;67.38
46534;BME280;32260;52.008;4.752;2023-10-08T02:06:59;102410.59;;;20.06;67.55
46534;BME280;32260;52.008;4.752;2023-10-08T02:09:26;102399.84;;;20.06;67.73
46534;BME280;32260;52.008;4.752;2023-10-08T02:11:52;102415.84;;;20.09;67.68
46534;BME280;32260;52.008;4.752;2023-10-08T02:14:20;102402.41;;;20.09;67.98
46534;BME280;32260;52.008;4.752;2023-10-08T02:16:48;102393.41;;;20.10;67.92
46534;BME280;32260;52.008;4.752;2023-10-08T02:19:15;102392.47;;;20.11;68.25
46534;BME280;32260;52.008;4.752;2023-10-08T02:21:44;102395.09;;;20.12;67.78
46534;BME280;32260;52.008;4.752;2023-10-08T02:24:12;102392.38;;;20.14;68.22
46534;BME280;32260;52.008;4.752;2023-10-08T02:26:40;102394.25;;;20.12;68.67
46534;BME280;32260;52.008;4.752;2023-10-08T02:29:06;102389.69;;;20.14;68.78
46534;BME280;32260;52.008;4.752;2023-10-08T02:31:37;102368.03;;;20.17;68.42
46534;BME280;32260;52.008;4.752;2023-10-08T02:34:06;102382.34;;;20.17;68.68
46534;BME280;32260;52.008;4.752;2023-10-08T02:36:34;102376.75;;;20.24;67.92
46534;BME280;32260;52.008;4.752;2023-10-08T02:39:03;102384.91;;;20.22;68.29
46534;BME280;32260;52.008;4.752;2023-10-08T02:41:40;102400.94;;;20.25;68.23
46534;BME280;32260;52.008;4.752;2023-10-08T02:44:09;102401.75;;;20.27;67.91
46534;BME280;32260;52.008;4.752;2023-10-08T02:46:41;102406.19;;;20.28;67.89
46534;BME280;32260;52.008;4.752;2023-10-08T02:49:09;102406.19;;;20.28;67.87
46534;BME280;32260;52.008;4.752;2023-10-08T02:51:40;102402.72;;;20.26;68.20
46534;BME280;32260;52.008;4.752;2023-10-08T02:54:08;102392.88;;;20.25;68.35
46534;BME280;32260;52.008;4.752;2023-10-08T02:56:43;102390.22;;;20.24;68.42
46534;BME280;32260;52.008;4.752;2023-10-08T02:59:12;102391.03;;;20.26;68.22
46534;BME280;32260;52.008;4.752;2023-10-08T03:01:39;102402.81;;;20.23;68.62
46534;BME280;32260;52.008;4.752;2023-10-08T03:04:07;102397.34;;;20.25;68.25
46534;BME280;32260;52.008;4.752;2023-10-08T03:06:44;102399.19;;;20.24;67.93
46534;BME280;32260;52.008;4.752;2023-10-08T03:09:11;102417.19;;;20.22;68.09
46534;BME280;32260;52.008;4.752;2023-10-08T03:11:39;102413.69;;;20.20;68.50
46534;BME280;32260;52.008;4.752;2023-10-08T03:14:06;102397.53;;;20.20;68.13
46534;BME280;32260;52.008;4.752;2023-10-08T03:16:40;102392.16;;;20.20;68.11
46534;BME280;32260;52.008;4.752;2023-10-08T03:19:07;102396.66;;;20.19;68.17
46534;BME280;32260;52.008;4.752;2023-10-08T03:21:34;102394.03;;;20.18;68.18
46534;BME280;32260;52.008;4.752;2023-10-08T03:24:16;102390.50;;;20.16;68.06
46534;BME280;32260;52.008;4.752;2023-10-08T03:27:02;102398.63;;;20.14;68.11
46534;BME280;32260;52.008;4.752;2023-10-08T03:29:34;102403.16;;;20.14;68.13
46534;BME280;32260;52.008;4.752;2023-10-08T03:32:07;102405.94;;;20.11;67.96
46534;BME280;32260;52.008;4.752;2023-10-08T03:34:39;102404.28;;;20.07;68.09
46534;BME280;32260;52.008;4.752;2023-10-08T03:37:09;102413.34;;;20.04;68.13
46534;BME280;32260;52.008;4.752;2023-10-08T03:39:36;102423.34;;;20.00;68.21
46534;BME280;32260;52.008;4.752;2023-10-08T03:42:21;102437.72;;;19.99;68.11
46534;BME280;32260;52.008;4.752;2023-10-08T03:44:49;102434.75;;;20.07;67.91
46534;BME280;32260;52.008;4.752;2023-10-08T03:47:19;102433.41;;;19.94;68.45
46534;BME280;32260;52.008;4.752;2023-10-08T03:49:49;102435.28;;;19.92;68.26
46534;BME280;32260;52.008;4.752;2023-10-08T03:52:17;102445.16;;;19.91;68.53
46534;BME280;32260;52.008;4.752;2023-10-08T03:54:50;102447.84;;;19.91;68.48
46534;BME280;32260;52.008;4.752;2023-10-08T03:57:30;102446.13;;;19.88;68.42
46534;BME280;32260;52.008;4.752;2023-10-08T04:00:08;102445.28;;;19.88;68.49
46534;BME280;32260;52.008;4.752;2023-10-08T04:02:39;102446.25;;;19.85;68.76
46534;BME280;32260;52.008;4.752;2023-10-08T04:05:07;102450.75;;;19.85;68.70
46534;BME280;32260;52.008;4.752;2023-10-08T04:07:44;102466.94;;;19.83;68.73
46534;BME280;32260;52.008;4.752;2023-10-08T04:10:32;102474.13;;;19.83;68.57
46534;BME280;32260;52.008;4.752;2023-10-08T04:13:19;102487.63;;;19.80;68.96
46534;BME280;32260;52.008;4.752;2023-10-08T04:15:46;102485.06;;;19.77;69.11
46534;BME280;32260;52.008;4.752;2023-10-08T04:18:12;102481.53;;;19.75;68.80
46534;BME280;32260;52.008;4.752;2023-10-08T04:20:39;102470.91;;;19.71;68.98
46534;BME280;32260;52.008;4.752;2023-10-08T04:23:08;102469.94;;;19.72;69.35
46534;BME280;32260;52.008;4.752;2023-10-08T04:25:49;102483.38;;;19.72;69.11
46534;BME280;32260;52.008;4.752;2023-10-08T04:28:20;102480.75;;;19.71;69.01
46534;BME280;32260;52.008;4.752;2023-10-08T04:30:48;102486.19;;;19.69;68.82
46534;BME280;32260;52.008;4.752;2023-10-08T04:33:14;102490.78;;;19.66;69.17
46534;BME280;32260;52.008;4.752;2023-10-08T04:35:42;102486.31;;;19.65;69.13
46534;BME280;32260;52.008;4.752;2023-10-08T04:38:23;102487.31;;;19.62;69.09
46534;BME280;32260;52.008;4.752;2023-10-08T04:40:52;102470.38;;;19.60;69.18
46534;BME280;32260;52.008;4.752;2023-10-08T04:43:20;102469.41;;;19.61;69.11
46534;BME280;32260;52.008;4.752;2023-10-08T04:45:51;102479.34;;;19.59;69.25
46534;BME280;32260;52.008;4.752;2023-10-08T04:48:17;102494.59;;;19.59;69.21
46534;BME280;32260;52.008;4.752;2023-10-08T04:50:48;102493.91;;;19.52;70.51
46534;BME280;32260;52.008;4.752;2023-10-08T04:56:04;102483.25;;;19.49;71.54
46534;BME280;32260;52.008;4.752;2023-10-08T04:58:33;102487.69;;;19.50;70.74
46534;BME280;32260;52.008;4.752;2023-10-08T05:01:02;102484.09;;;19.51;70.41
46534;BME280;32260;52.008;4.752;2023-10-08T05:03:45;102473.38;;;19.49;70.33
46534;BME280;32260;52.008;4.752;2023-10-08T05:06:37;102486.13;;;19.43;70.17
46534;BME280;32260;52.008;4.752;2023-10-08T05:09:14;102504.31;;;19.34;70.38
46534;BME280;32260;52.008;4.752;2023-10-08T05:11:58;102501.75;;;19.30;70.14
46534;BME280;32260;52.008;4.752;2023-10-08T05:14:44;102492.91;;;19.26;69.95
46534;BME280;32260;52.008;4.752;2023-10-08T05:17:21;102494.91;;;19.19;70.33
46534;BME280;32260;52.008;4.752;2023-10-08T05:19:49;102495.88;;;19.17;69.97
46534;BME280;32260;52.008;4.752;2023-10-08T05:22:35;102504.88;;;19.16;69.78
46534;BME280;32260;52.008;4.752;2023-10-08T05:25:13;102496.88;;;19.13;69.91
46534;BME280;32260;52.008;4.752;2023-10-08T05:27:54;102502.22;;;19.14;69.71
46534;BME280;32260;52.008;4.752;2023-10-08T05:30:31;102505.03;;;19.10;70.00
46534;BME280;32260;52.008;4.752;2023-10-08T05:33:05;102514.03;;;19.08;69.78
46534;BME280;32260;52.008;4.752;2023-10-08T05:35:39;102521.22;;;19.06;69.62
46534;BME280;32260;52.008;4.752;2023-10-08T05:38:18;102505.16;;;19.05;69.59
46534;BME280;32260;52.008;4.752;2023-10-08T05:41:11;102501.69;;;19.01;69.56
46534;BME280;32260;52.008;4.752;2023-10-08T05:43:53;102491.88;;;19.00;69.45
46534;BME280;32260;52.008;4.752;2023-10-08T05:46:40;102494.53;;;19.00;69.59
46534;BME280;32260;52.008;4.752;2023-10-08T05:49:15;102491.00;;;19.00;69.33
46534;BME280;32260;52.008;4.752;2023-10-08T05:51:52;102503.56;;;18.99;69.30
46534;BME280;32260;52.008;4.752;2023-10-08T05:54:29;102508.94;;;18.99;69.27
46534;BME280;32260;52.008;4.752;2023-10-08T05:57:08;102515.28;;;18.95;69.28
46534;BME280;32260;52.008;4.752;2023-10-08T05:59:48;102512.75;;;18.90;69.33
46534;BME280;32260;52.008;4.752;2023-10-08T06:02:32;102510.97;;;18.89;69.22
46534;BME280;32260;52.008;4.752;2023-10-08T06:05:11;102516.47;;;18.85;69.11
46534;BME280;32260;52.008;4.752;2023-10-08T06:07:50;102523.66;;;18.83;69.25
46534;BME280;32260;52.008;4.752;2023-10-08T06:10:32;102524.63;;;18.80;69.18
46534;BME280;32260;52.008;4.752;2023-10-08T06:13:12;102524.69;;;18.79;69.44
46534;BME280;32260;52.008;4.752;2023-10-08T06:15:45;102536.34;;;18.78;69.53
46534;BME280;32260;52.008;4.752;2023-10-08T06:18:18;102549.75;;;18.78;69.44
46534;BME280;32260;52.008;4.752;2023-10-08T06:20:46;102555.13;;;18.78;69.29
46534;BME280;32260;52.008;4.752;2023-10-08T06:23:14;102557.88;;;18.76;69.50
46534;BME280;32260;52.008;4.752;2023-10-08T06:25:44;102559.38;;;18.86;69.19
46534;BME280;32260;52.008;4.752;2023-10-08T06:28:18;102572.16;;;18.76;69.46
46534;BME280;32260;52.008;4.752;2023-10-08T06:30:46;102572.31;;;18.70;69.81
46534;BME280;32260;52.008;4.752;2023-10-08T06:33:13;102576.78;;;18.71;69.89
46534;BME280;32260;52.008;4.752;2023-10-08T06:35:39;102581.41;;;18.66;70.23
46534;BME280;32260;52.008;4.752;2023-10-08T06:38:11;102584.03;;;18.68;69.85
46534;BME280;32260;52.008;4.752;2023-10-08T06:40:37;102569.84;;;18.63;69.99
46534;BME280;32260;52.008;4.752;2023-10-08T06:43:15;102562.81;;;18.58;70.13
46534;BME280;32260;52.008;4.752;2023-10-08T06:45:44;102562.06;;;18.53;70.61
46534;BME280;32260;52.008;4.752;2023-10-08T06:48:11;102570.91;;;18.57;69.96
46534;BME280;32260;52.008;4.752;2023-10-08T06:50:45;102572.59;;;18.61;69.88
46534;BME280;32260;52.008;4.752;2023-10-08T06:53:12;102578.91;;;18.58;69.54
46534;BME280;32260;52.008;4.752;2023-10-08T06:55:41;102588.75;;;18.59;69.49
46534;BME280;32260;52.008;4.752;2023-10-08T06:58:08;102590.53;;;18.59;69.53
46534;BME280;32260;52.008;4.752;2023-10-08T07:00:35;102595.84;;;18.62;69.21
46534;BME280;32260;52.008;4.752;2023-10-08T07:03:06;102594.00;;;18.64;69.03
46534;BME280;32260;52.008;4.752;2023-10-08T07:05:36;102590.50;;;18.61;68.93
46534;BME280;32260;52.008;4.752;2023-10-08T07:08:07;102603.84;;;18.64;68.67
46534;BME280;32260;52.008;4.752;2023-10-08T07:10:34;102602.16;;;18.59;68.49
46534;BME280;32260;52.008;4.752;2023-10-08T07:13:00;102611.94;;;18.62;68.42
46534;BME280;32260;52.008;4.752;2023-10-08T07:15:29;102606.56;;;18.62;68.23
46534;BME280;32260;52.008;4.752;2023-10-08T07:17:56;102606.63;;;18.59;68.21
46534;BME280;32260;52.008;4.752;2023-10-08T07:20:22;102618.28;;;18.59;68.33
46534;BME280;32260;52.008;4.752;2023-10-08T07:22:49;102610.38;;;18.53;68.22
46534;BME280;32260;52.008;4.752;2023-10-08T07:25:21;102612.25;;;18.50;68.01
46534;BME280;32260;52.008;4.752;2023-10-08T07:27:47;102637.31;;;18.49;68.26
46534;BME280;32260;52.008;4.752;2023-10-08T07:30:14;102625.72;;;18.48;68.48
46534;BME280;32260;52.008;4.752;2023-10-08T07:32:52;102632.03;;;18.46;68.05
46534;BME280;32260;52.008;4.752;2023-10-08T07:35:20;102635.69;;;18.41;68.07
46534;BME280;32260;52.008;4.752;2023-10-08T07:38:10;102644.66;;;18.42;68.19
46534;BME280;32260;52.008;4.752;2023-10-08T07:40:36;102652.81;;;18.37;68.08
46534;BME280;32260;52.008;4.752;2023-10-08T07:43:03;102642.13;;;18.36;67.99
46534;BME280;32260;52.008;4.752;2023-10-08T07:45:34;102629.66;;;18.32;68.41
46534;BME280;32260;52.008;4.752;2023-10-08T07:48:02;102643.06;;;18.33;68.17
46534;BME280;32260;52.008;4.752;2023-10-08T07:50:32;102651.19;;;18.30;68.15
46534;BME280;32260;52.008;4.752;2023-10-08T07:52:58;102655.53;;;18.34;68.18
46534;BME280;32260;52.008;4.752;2023-10-08T07:55:24;102654.75;;;18.31;68.11
46534;BME280;32260;52.008;4.752;2023-10-08T07:57:50;102663.72;;;18.30;68.13
46534;BME280;32260;52.008;4.752;2023-10-08T08:00:16;102659.28;;;18.29;68.15
46534;BME280;32260;52.008;4.752;2023-10-08T08:02:48;102662.38;;;18.48;67.79
46534;BME280;32260;52.008;4.752;2023-10-08T08:05:15;102671.50;;;18.40;68.15
46534;BME280;32260;52.008;4.752;2023-10-08T08:07:43;102670.53;;;18.45;68.13
46534;BME280;32260;52.008;4.752;2023-10-08T08:10:12;102675.78;;;18.49;68.18
46534;BME280;32260;52.008;4.752;2023-10-08T08:12:40;102671.28;;;18.50;68.29
46534;BME280;32260;52.008;4.752;2023-10-08T08:15:06;102681.88;;;18.56;68.04
46534;BME280;32260;52.008;4.752;2023-10-08T08:17:41;102680.16;;;18.53;67.93
46534;BME280;32260;52.008;4.752;2023-10-08T08:20:08;102680.16;;;18.53;67.90
46534;BME280;32260;52.008;4.752;2023-10-08T08:22:54;102685.44;;;18.58;67.81
46534;BME280;32260;52.008;4.752;2023-10-08T08:25:20;102680.06;;;18.58;67.85
46534;BME280;32260;52.008;4.752;2023-10-08T08:28:00;102686.19;;;18.63;67.84
46534;BME280;32260;52.008;4.752;2023-10-08T08:30:26;102693.19;;;18.69;67.82
46534;BME280;32260;52.008;4.752;2023-10-08T08:32:52;102704.69;;;18.74;67.44
46534;BME280;32260;52.008;4.752;2023-10-08T08:35:20;102706.63;;;18.69;66.52
46534;BME280;32260;52.008;4.752;2023-10-08T08:37:46;102709.09;;;18.78;66.70
46534;BME280;32260;52.008;4.752;2023-10-08T08:40:13;102709.97;;;18.79;66.66
46534;BME280;32260;52.008;4.752;2023-10-08T08:42:54;102705.31;;;18.85;66.86
46534;BME280;32260;52.008;4.752;2023-10-08T08:45:24;102711.47;;;18.92;66.88
46534;BME280;32260;52.008;4.752;2023-10-08T08:47:51;102705.44;;;18.81;65.17
46534;BME280;32260;52.008;4.752;2023-10-08T08:50:17;102716.88;;;18.89;65.85
46534;BME280;32260;52.008;4.752;2023-10-08T08:52:45;102713.22;;;18.93;65.62
46534;BME280;32260;52.008;4.752;2023-10-08T08:55:12;102707.88;;;18.93;65.75
46534;BME280;32260;52.008;4.752;2023-10-08T08:57:45;102699.66;;;18.98;65.90
46534;BME280;32260;52.008;4.752;2023-10-08T09:00:13;102704.06;;;19.00;65.63
46534;BME280;32260;52.008;4.752;2023-10-08T09:02:40;102700.31;;;19.07;65.41
46534;BME280;32260;52.008;4.752;2023-10-08T09:05:07;102702.00;;;19.12;65.37
46534;BME280;32260;52.008;4.752;2023-10-08T09:07:56;102691.09;;;19.18;65.28
46534;BME280;32260;52.008;4.752;2023-10-08T09:10:23;102691.81;;;19.24;64.88
46534;BME280;32260;52.008;4.752;2023-10-08T09:12:54;102694.53;;;19.23;63.68
46534;BME280;32260;52.008;4.752;2023-10-08T09:15:24;102696.16;;;19.30;64.40
46534;BME280;32260;52.008;4.752;2023-10-08T09:17:52;102693.25;;;19.36;64.39
46534;BME280;32260;52.008;4.752;2023-10-08T09:20:19;102701.31;;;19.38;64.47
46534;BME280;32260;52.008;4.752;2023-10-08T09:22:50;102695.88;;;19.39;64.25
46534;BME280;32260;52.008;4.752;2023-10-08T09:25:34;102699.41;;;19.42;63.51
46534;BME280;32260;52.008;4.752;2023-10-08T09:28:00;102688.50;;;19.48;64.04
46534;BME280;32260;52.008;4.752;2023-10-08T09:30:29;102684.00;;;19.48;63.15
46534;BME280;32260;52.008;4.752;2023-10-08T09:32:56;102685.63;;;19.54;63.10
46534;BME280;32260;52.008;4.752;2023-10-08T09:35:23;102671.13;;;19.60;64.10
46534;BME280;32260;52.008;4.752;2023-10-08T09:37:50;102680.66;;;19.71;64.04
46534;BME280;32260;52.008;4.752;2023-10-08T09:40:18;102701.09;;;19.77;63.78
46534;BME280;32260;52.008;4.752;2023-10-08T09:42:48;102695.94;;;19.69;63.52
46534;BME280;32260;52.008;4.752;2023-10-08T09:45:14;102702.97;;;19.73;62.95
46534;BME280;32260;52.008;4.752;2023-10-08T09:47:45;102700.47;;;19.67;62.56
46534;BME280;32260;52.008;4.752;2023-10-08T09:50:13;102695.84;;;19.72;63.31
46534;BME280;32260;52.008;4.752;2023-10-08T09:53:03;102681.41;;;19.77;62.02
46534;BME280;32260;52.008;4.752;2023-10-08T09:55:33;102674.00;;;19.85;62.20
46534;BME280;32260;52.008;4.752;2023-10-08T09:58:01;102672.41;;;19.78;62.11
46534;BME280;32260;52.008;4.752;2023-10-08T10:00:29;102673.22;;;19.80;62.47
46534;BME280;32260;52.008;4.752;2023-10-08T10:02:59;102675.34;;;19.68;61.80
46534;BME280;32260;52.008;4.752;2023-10-08T10:05:30;102694.72;;;19.81;62.15
46534;BME280;32260;52.008;4.752;2023-10-08T10:07:57;102681.28;;;19.80;62.01
46534;BME280;32260;52.008;4.752;2023-10-08T10:10:28;102677.47;;;19.88;62.36
46534;BME280;32260;52.008;4.752;2023-10-08T10:12:59;102687.31;;;19.90;62.45
46534;BME280;32260;52.008;4.752;2023-10-08T10:15:26;102685.47;;;19.92;62.29
46534;BME280;32260;52.008;4.752;2023-10-08T10:17:52;102696.97;;;19.97;62.38
46534;BME280;32260;52.008;4.752;2023-10-08T10:20:21;102696.09;;;19.96;61.86
46534;BME280;32260;52.008;4.752;2023-10-08T10:22:47;102697.84;;;19.97;61.84
46534;BME280;32260;52.008;4.752;2023-10-08T10:25:16;102700.41;;;20.02;62.25
46534;BME280;32260;52.008;4.752;2023-10-08T10:30:40;102714.63;;;20.06;61.85
46534;BME280;32260;52.008;4.752;2023-10-08T10:33:07;102710.31;;;20.00;62.20
46534;BME280;32260;52.008;4.752;2023-10-08T10:35:36;102705.91;;;19.97;61.41
46534;BME280;32260;52.008;4.752;2023-10-08T10:38:06;102710.53;;;19.92;61.77
46534;BME280;32260;52.008;4.752;2023-10-08T10:40:32;102707.72;;;19.97;61.64
46534;BME280;32260;52.008;4.752;2023-10-08T10:43:06;102702.25;;;20.00;61.82
46534;BME280;32260;52.008;4.752;2023-10-08T10:45:33;102712.00;;;20.04;62.03
46534;BME280;32260;52.008;4.752;2023-10-08T10:48:03;102702.34;;;19.97;62.02
46534;BME280;32260;52.008;4.752;2023-10-08T10:50:55;102710.97;;;20.08;61.84
46534;BME280;32260;52.008;4.752;2023-10-08T10:53:42;102700.25;;;20.07;61.14
46534;BME280;32260;52.008;4.752;2023-10-08T10:56:28;102692.09;;;20.10;61.45
46534;BME280;32260;52.008;4.752;2023-10-08T10:59:03;102696.03;;;20.28;61.64
46534;BME280;32260;52.008;4.752;2023-10-08T11:01:51;102691.31;;;20.34;61.08
46534;BME280;32260;52.008;4.752;2023-10-08T11:04:18;102690.38;;;20.35;60.92
46534;BME280;32260;52.008;4.752;2023-10-08T11:06:47;102686.63;;;20.41;60.83
46534;BME280;32260;52.008;4.752;2023-10-08T11:09:16;102689.06;;;20.49;60.86
46534;BME280;32260;52.008;4.752;2023-10-08T11:11:57;102685.28;;;20.55;60.56
46534;BME280;32260;52.008;4.752;2023-10-08T11:14:25;102679.69;;;20.61;61.03
46534;BME280;32260;52.008;4.752;2023-10-08T11:16:51;102678.03;;;20.57;60.24
46534;BME280;32260;52.008;4.752;2023-10-08T11:19:20;102678.50;;;20.69;60.02
46534;BME280;32260;52.008;4.752;2023-10-08T11:21:51;102674.56;;;20.81;60.30
46534;BME280;32260;52.008;4.752;2023-10-08T11:24:34;102673.38;;;20.90;59.57
46534;BME280;32260;52.008;4.752;2023-10-08T11:27:01;102676.41;;;20.79;59.98
46534;BME280;32260;52.008;4.752;2023-10-08T11:29:46;102682.50;;;20.86;59.64
46534;BME280;32260;52.008;4.752;2023-10-08T11:32:14;102678.34;;;21.03;59.99
46534;BME280;32260;52.008;4.752;2023-10-08T11:34:46;102671.06;;;21.05;59.26
46534;BME280;32260;52.008;4.752;2023-10-08T11:37:30;102671.09;;;21.30;59.14
46534;BME280;32260;52.008;4.752;2023-10-08T11:39:59;102668.25;;;21.33;59.03
46534;BME280;32260;52.008;4.752;2023-10-08T11:42:26;102669.03;;;21.37;58.63
46534;BME280;32260;52.008;4.752;2023-10-08T11:45:10;102669.97;;;21.36;58.60
46534;BME280;32260;52.008;4.752;2023-10-08T11:47:45;102665.25;;;21.42;58.44
46534;BME280;32260;52.008;4.752;2023-10-08T11:50:12;102674.47;;;21.35;58.45
46534;BME280;32260;52.008;4.752;2023-10-08T11:52:43;102664.63;;;21.34;57.65
46534;BME280;32260;52.008;4.752;2023-10-08T11:55:09;102665.78;;;21.27;57.72
46534;BME280;32260;52.008;4.752;2023-10-08T11:57:39;102663.78;;;21.32;57.79
46534;BME280;32260;52.008;4.752;2023-10-08T12:00:12;102653.31;;;21.48;58.51
46534;BME280;32260;52.008;4.752;2023-10-08T12:02:47;102661.13;;;21.57;57.99
46534;BME280;32260;52.008;4.752;2023-10-08T12:05:14;102651.03;;;21.62;57.94
46534;BME280;32260;52.008;4.752;2023-10-08T12:07:55;102646.56;;;21.61;58.01
46534;BME280;32260;52.008;4.752;2023-10-08T12:10:24;102643.88;;;21.61;57.73
46534;BME280;32260;52.008;4.752;2023-10-08T12:12:54;102636.72;;;21.60;57.90
46534;BME280;32260;52.008;4.752;2023-10-08T12:15:21;102636.34;;;21.46;57.63
46534;BME280;32260;52.008;4.752;2023-10-08T12:17:48;102631.53;;;21.54;57.81
46534;BME280;32260;52.008;4.752;2023-10-08T12:20:35;102617.47;;;21.46;57.57
46534;BME280;32260;52.008;4.752;2023-10-08T12:23:04;102622.50;;;21.55;58.28
46534;BME280;32260;52.008;4.752;2023-10-08T12:25:31;102612.81;;;21.49;58.41
46534;BME280;32260;52.008;4.752;2023-10-08T12:27:59;102609.88;;;21.57;58.49
46534;BME280;32260;52.008;4.752;2023-10-08T12:30:30;102599.16;;;21.54;58.19
46534;BME280;32260;52.008;4.752;2023-10-08T12:33:00;102598.72;;;21.67;58.19
46534;BME280;32260;52.008;4.752;2023-10-08T12:35:27;102604.00;;;21.70;58.32
46534;BME280;32260;52.008;4.752;2023-10-08T12:37:55;102594.44;;;21.85;58.04
46534;BME280;32260;52.008;4.752;2023-10-08T12:40:21;102598.69;;;21.90;58.50
46534;BME280;32260;52.008;4.752;2023-10-08T12:42:49;102598.38;;;21.98;57.91
46534;BME280;32260;52.008;4.752;2023-10-08T12:45:16;102599.03;;;22.05;57.71
46534;BME280;32260;52.008;4.752;2023-10-08T12:47:48;102593.38;;;22.11;57.78
46534;BME280;32260;52.008;4.752;2023-10-08T12:50:16;102592.63;;;22.07;57.53
46534;BME280;32260;52.008;4.752;2023-10-08T12:52:44;102584.00;;;21.97;57.61
46534;BME280;32260;52.008;4.752;2023-10-08T12:55:19;102584.25;;;21.91;57.49
46534;BME280;32260;52.008;4.752;2023-10-08T12:57:51;102573.63;;;21.87;57.77
46534;BME280;32260;52.008;4.752;2023-10-08T13:00:22;102563.06;;;21.82;58.07
46534;BME280;32260;52.008;4.752;2023-10-08T13:02:50;102566.09;;;21.73;58.17
46534;BME280;32260;52.008;4.752;2023-10-08T13:05:22;102561.97;;;21.86;58.28
46534;BME280;32260;52.008;4.752;2023-10-08T13:07:55;102564.50;;;21.91;57.85
46534;BME280;32260;52.008;4.752;2023-10-08T13:10:23;102556.91;;;21.78;57.72
46534;BME280;32260;52.008;4.752;2023-10-08T13:12:49;102554.13;;;21.80;57.83
46534;BME280;32260;52.008;4.752;2023-10-08T13:15:15;102559.72;;;21.75;57.97
46534;BME280;32260;52.008;4.752;2023-10-08T13:17:41;102562.78;;;21.66;58.20